Terminal Aerodrome Forecast
Issued by NWS

Home | Current Version | Previous Version | Text Only | Print | Product List | Glossary On
Versions: 1 2 3 4 5 6 7 8 9 10 11 12 13 14 15
000
FTUS45 KTFX 272337
TAFGTF
TAF
KGTF 272337Z 2800/2824 27007KT P6SM VCTS SCT035CB SCT060
      TEMPO 2800/2802 -TSRA BKN050CB
     FM280200 24005KT P6SM SCT050 OVC080
     FM281500 25006KT P6SM -SHRA BKN060
     FM281800 VRB06KT P6SM VCTS BKN050CB PROB30 2820/2824 VRB25G35KT
      4SM -TSRA BKN030CB=

USA.gov is the U.S. government's official web portal to all federal, state and local government web resources and services.